Pleasant Plains, Illinois
Current Conditions -  °F | °C
As of 11:52 AM on Saturday 20 Dec 2014 (Local Time) from KSPI Reporting Station
Overcast Overcast  
Wind Chill: -1°   Ceiling: 2800
Heat Index:   Visibility: 10mi
Dew Point: -2°   Wind: 8mph
Humidity: 70%   Direction: 150°SSE
Pressure: 30.26"   Gusts: NA
Location:  39.87°N, 89.92°W
Report Text: KSPI 201752Z 15007KT 10SM BKN028 OVC055 03/M02 A3026 RMK AO2 SLP252 T00281022 10028 20000 58008
Loading
Personal Weather Stations






























Interactive Weather Map New forecast layout! Learn more

10-Day Weather Forecast

Advertisements
Track Severe Weather on mobile